createdAt,value
2019-02-23T00:00:46.098Z,1.60
2019-02-23T00:03:14.730Z,1.98
2019-02-23T00:05:44.039Z,1.90
2019-02-23T00:08:12.172Z,1.72
2019-02-23T00:10:40.279Z,1.70
2019-02-23T00:13:09.432Z,1.60
2019-02-23T00:15:37.655Z,1.40
2019-02-23T00:18:05.827Z,1.27
2019-02-23T00:20:33.999Z,1.25
2019-02-23T00:23:02.089Z,1.62
2019-02-23T00:25:30.145Z,1.37
2019-02-23T00:27:58.243Z,1.70
2019-02-23T00:30:26.336Z,1.42
2019-02-23T00:32:54.561Z,1.40
2019-02-23T00:35:22.636Z,1.20
2019-02-23T00:37:50.722Z,1.27
2019-02-23T00:40:18.793Z,1.30
2019-02-23T00:42:46.880Z,1.32
2019-02-23T00:45:14.992Z,1.50
2019-02-23T00:47:43.068Z,1.45
2019-02-23T00:50:11.222Z,1.30
2019-02-23T00:52:39.297Z,1.40
2019-02-23T00:55:07.724Z,1.40
2019-02-23T00:57:35.814Z,1.10
2019-02-23T01:00:05.410Z,1.30
2019-02-23T01:02:34.353Z,1.30
2019-02-23T01:05:02.457Z,1.30
2019-02-23T01:07:30.586Z,1.00
2019-02-23T01:09:58.696Z,1.15
2019-02-23T01:12:26.862Z,1.20
2019-02-23T01:14:54.951Z,1.45
2019-02-23T01:17:23.037Z,1.80
2019-02-23T01:19:51.157Z,1.37
2019-02-23T01:22:22.218Z,1.50
2019-02-23T01:24:50.312Z,1.70
2019-02-23T01:27:18.476Z,1.70
2019-02-23T01:29:46.614Z,1.30
2019-02-23T01:32:14.727Z,1.30
2019-02-23T01:34:42.881Z,1.70
2019-02-23T01:37:10.963Z,1.67
2019-02-23T01:39:39.064Z,1.40
2019-02-23T01:42:07.372Z,1.40
2019-02-23T01:44:36.622Z,1.10
2019-02-23T01:47:04.770Z,1.10
2019-02-23T01:49:32.926Z,1.22
2019-02-23T01:52:01.094Z,1.30
2019-02-23T01:54:29.164Z,1.10
2019-02-23T01:56:57.262Z,0.90
2019-02-23T01:59:25.396Z,1.02
2019-02-23T02:01:53.450Z,1.02
2019-02-23T02:04:21.517Z,1.30
2019-02-23T02:06:49.593Z,1.30
2019-02-23T02:09:17.971Z,1.05
2019-02-23T02:11:46.125Z,0.90
2019-02-23T02:14:14.285Z,1.15
2019-02-23T02:16:42.419Z,1.20
2019-02-23T02:19:10.589Z,1.20
2019-02-23T02:21:38.693Z,1.12
2019-02-23T02:24:07.224Z,0.93
2019-02-23T02:26:35.290Z,1.10
2019-02-23T02:29:03.486Z,1.02
2019-02-23T02:31:31.538Z,1.27
2019-02-23T02:34:03.361Z,1.37
2019-02-23T02:36:31.494Z,1.37
2019-02-23T02:38:59.581Z,1.10
2019-02-23T02:41:27.727Z,1.15
2019-02-23T02:43:55.800Z,1.30
2019-02-23T02:46:23.908Z,1.30
2019-02-23T02:48:52.122Z,0.90
2019-02-23T02:51:20.364Z,1.22
2019-02-23T02:53:48.536Z,1.10
2019-02-23T02:56:16.711Z,1.30
2019-02-23T02:58:45.940Z,1.10
2019-02-23T03:01:14.096Z,1.12
2019-02-23T03:03:42.162Z,1.20
2019-02-23T03:06:10.238Z,0.90
2019-02-23T03:08:38.327Z,1.10
2019-02-23T03:11:06.458Z,1.22
2019-02-23T03:13:34.603Z,1.10
2019-02-23T03:16:02.710Z,1.20
2019-02-23T03:18:30.812Z,1.30
2019-02-23T03:20:58.902Z,1.15
2019-02-23T03:23:27.065Z,1.20
2019-02-23T03:25:55.285Z,0.93
2019-02-23T03:28:23.418Z,1.12
2019-02-23T03:30:51.533Z,1.10
2019-02-23T03:33:19.608Z,0.80
2019-02-23T03:35:47.669Z,1.30
2019-02-23T03:38:15.752Z,1.30
2019-02-23T03:40:43.819Z,1.07
2019-02-23T03:43:12.377Z,1.20
2019-02-23T03:45:40.516Z,1.00
2019-02-23T03:48:08.585Z,1.27
2019-02-23T03:50:48.455Z,1.30
2019-02-23T03:53:06.521Z,1.00
2019-02-23T03:55:34.671Z,1.47
2019-02-23T03:58:02.816Z,1.00
2019-02-23T04:00:31.048Z,1.12
2019-02-23T04:02:59.172Z,1.00
2019-02-23T04:05:27.320Z,0.90
2019-02-23T04:07:55.409Z,1.05
2019-02-23T04:10:23.475Z,0.78
2019-02-23T04:12:51.647Z,0.90
2019-02-23T04:15:19.717Z,0.90
2019-02-23T04:17:47.951Z,1.30
2019-02-23T04:20:16.350Z,0.80
2019-02-23T04:22:44.537Z,0.70
2019-02-23T04:25:12.670Z,0.80
2019-02-23T04:27:42.393Z,0.82
2019-02-23T04:30:10.646Z,0.80
2019-02-23T04:32:38.817Z,0.68
2019-02-23T04:35:07.030Z,0.88
2019-02-23T04:37:36.193Z,0.68
2019-02-23T04:40:04.687Z,0.70
2019-02-23T04:42:32.753Z,0.70
2019-02-23T04:45:01.166Z,0.62
2019-02-23T04:47:30.463Z,1.10
2019-02-23T04:49:58.531Z,1.07
2019-02-23T04:52:26.588Z,1.10
2019-02-23T04:54:55.765Z,0.80
2019-02-23T04:57:23.893Z,0.80
2019-02-23T04:59:52.109Z,0.85
2019-02-23T05:02:20.194Z,0.90
2019-02-23T05:04:48.266Z,1.00
2019-02-23T05:07:16.413Z,1.00
2019-02-23T05:09:44.552Z,1.20
2019-02-23T05:12:12.770Z,1.82
2019-02-23T05:14:40.849Z,1.27
2019-02-23T05:17:08.914Z,1.20
2019-02-23T05:19:36.973Z,1.00
2019-02-23T05:22:05.043Z,1.30
2019-02-23T05:24:33.114Z,0.93
2019-02-23T05:27:01.257Z,1.10
2019-02-23T05:29:29.333Z,1.05
2019-02-23T05:31:57.495Z,1.30
2019-02-23T05:34:25.625Z,1.27
2019-02-23T05:36:53.726Z,1.20
2019-02-23T05:39:21.886Z,1.30
2019-02-23T05:41:50.036Z,1.60
2019-02-23T05:44:18.110Z,1.60
2019-02-23T05:46:47.256Z,1.60
2019-02-23T05:49:15.320Z,1.50
2019-02-23T05:51:43.419Z,1.22
2019-02-23T05:54:11.600Z,1.30
2019-02-23T05:56:40.057Z,1.00
2019-02-23T05:59:08.105Z,1.10
2019-02-23T06:01:36.248Z,1.65
2019-02-23T06:04:04.303Z,1.95
2019-02-23T06:06:32.389Z,2.00
2019-02-23T06:09:00.514Z,2.10
2019-02-23T06:11:28.889Z,2.30
2019-02-23T06:13:56.962Z,1.85
2019-02-23T06:16:26.314Z,2.20
2019-02-23T06:18:54.450Z,2.17
2019-02-23T06:21:22.515Z,2.02
2019-02-23T06:23:50.602Z,2.00
2019-02-23T06:26:18.702Z,1.70
2019-02-23T06:28:47.208Z,1.90
2019-02-23T06:31:15.565Z,1.50
2019-02-23T06:33:44.724Z,1.22
2019-02-23T06:36:12.789Z,1.37
2019-02-23T06:38:40.869Z,1.10
2019-02-23T06:41:08.979Z,0.93
2019-02-23T06:43:37.064Z,1.25
2019-02-23T06:46:05.331Z,1.10
2019-02-23T06:48:33.435Z,1.10
2019-02-23T06:51:01.590Z,1.55
2019-02-23T06:53:29.716Z,1.60
2019-02-23T06:55:57.866Z,1.27
2019-02-23T06:58:25.947Z,1.05
2019-02-23T07:00:54.094Z,1.15
2019-02-23T07:03:23.165Z,1.30
2019-02-23T07:05:51.229Z,2.52
2019-02-23T07:08:20.837Z,2.25
2019-02-23T07:10:48.919Z,2.42
2019-02-23T07:13:17.953Z,2.47
2019-02-23T07:15:46.104Z,2.55
2019-02-23T07:18:14.179Z,2.60
2019-02-23T07:20:44.455Z,2.70
2019-02-23T07:23:12.015Z,2.77
2019-02-23T07:25:40.796Z,2.37
2019-02-23T07:28:10.900Z,3.50
2019-02-23T07:30:39.884Z,3.47
2019-02-23T07:33:09.052Z,3.40
2019-02-23T07:35:38.315Z,3.25
2019-02-23T07:38:06.474Z,2.80
2019-02-23T07:40:34.562Z,2.60
2019-02-23T07:43:03.140Z,3.05
2019-02-23T07:45:31.190Z,3.37
2019-02-23T07:47:59.281Z,2.45
2019-02-23T07:50:27.426Z,3.20
2019-02-23T07:52:55.607Z,3.37
2019-02-23T07:55:23.748Z,3.02
2019-02-23T07:57:51.830Z,2.40
2019-02-23T08:00:19.899Z,2.80
2019-02-23T08:02:48.147Z,3.80
2019-02-23T08:05:16.386Z,3.02
2019-02-23T08:07:44.521Z,3.10
2019-02-23T08:10:12.801Z,3.90
2019-02-23T08:12:40.948Z,2.58
2019-02-23T08:15:10.106Z,2.83
2019-02-23T08:17:38.408Z,3.00
2019-02-23T08:20:19.384Z,2.80
2019-02-23T08:22:47.473Z,2.40
2019-02-23T08:25:15.667Z,2.83
2019-02-23T08:27:43.862Z,3.00
2019-02-23T08:30:12.986Z,2.85
2019-02-23T08:32:41.140Z,3.30
2019-02-23T08:35:09.230Z,3.10
2019-02-23T08:37:38.482Z,3.33
2019-02-23T08:40:08.146Z,3.42
2019-02-23T08:42:36.257Z,2.92
2019-02-23T08:45:05.502Z,3.17
2019-02-23T08:47:33.588Z,2.58
2019-02-23T08:50:01.653Z,2.37
2019-02-23T08:52:29.818Z,2.60
2019-02-23T08:54:57.982Z,3.08
2019-02-23T08:57:26.234Z,2.70
2019-02-23T08:59:54.331Z,2.87
2019-02-23T09:02:22.516Z,2.85
2019-02-23T09:04:50.673Z,2.35
2019-02-23T09:07:18.748Z,2.50
2019-02-23T09:09:46.921Z,2.30
2019-02-23T09:12:15.070Z,2.70
2019-02-23T09:14:43.158Z,2.27
2019-02-23T09:17:11.317Z,2.40
2019-02-23T09:19:39.384Z,2.00
2019-02-23T09:22:07.463Z,2.33
2019-02-23T09:24:35.525Z,2.35
2019-02-23T09:27:04.418Z,2.80
2019-02-23T09:29:32.520Z,2.83
2019-02-23T09:32:00.690Z,2.40
2019-02-23T09:34:28.771Z,2.45
2019-02-23T09:36:56.843Z,2.55
2019-02-23T09:39:24.947Z,2.50
2019-02-23T09:41:53.077Z,2.87
2019-02-23T09:44:21.276Z,3.20
2019-02-23T09:46:49.494Z,2.90
2019-02-23T09:49:18.715Z,2.60
2019-02-23T09:51:46.846Z,2.62
2019-02-23T09:54:15.056Z,2.75
2019-02-23T09:56:43.240Z,2.10
2019-02-23T09:59:11.512Z,2.55
2019-02-23T10:01:39.678Z,3.35
2019-02-23T10:04:07.756Z,2.40
2019-02-23T10:06:35.923Z,2.87
2019-02-23T10:09:04.816Z,2.62
2019-02-23T10:11:33.204Z,2.27
2019-02-23T10:14:01.362Z,2.15
2019-02-23T10:16:29.435Z,2.33
2019-02-23T10:18:57.519Z,2.08
2019-02-23T10:21:25.743Z,2.33
2019-02-23T10:23:54.878Z,3.30
2019-02-23T10:26:22.951Z,3.75
2019-02-23T10:28:51.205Z,3.90
2019-02-23T10:31:19.314Z,4.58
2019-02-23T10:33:48.009Z,4.10
2019-02-23T10:36:16.260Z,3.47
2019-02-23T10:38:44.382Z,3.55
2019-02-23T10:41:12.615Z,4.20
2019-02-23T10:43:40.799Z,3.08
2019-02-23T10:46:09.019Z,3.50
2019-02-23T10:48:37.207Z,3.60
2019-02-23T10:51:05.265Z,3.00
2019-02-23T10:53:33.433Z,3.42
2019-02-23T10:56:01.998Z,3.20
2019-02-23T10:58:30.197Z,3.40
2019-02-23T11:00:58.279Z,3.45
2019-02-23T11:03:26.480Z,3.08
2019-02-23T11:05:54.617Z,3.45
2019-02-23T11:08:22.722Z,4.50
2019-02-23T11:10:51.040Z,3.75
2019-02-23T11:13:19.651Z,3.58
2019-02-23T11:15:47.960Z,3.45
2019-02-23T11:18:16.135Z,2.87
2019-02-23T11:20:44.344Z,2.87
2019-02-23T11:23:14.126Z,3.12
2019-02-23T11:25:42.251Z,2.77
2019-02-23T11:28:10.378Z,2.60
2019-02-23T11:30:38.573Z,2.27
2019-02-23T11:33:06.743Z,2.62
2019-02-23T11:35:34.813Z,2.72
2019-02-23T11:38:02.953Z,2.58
2019-02-23T11:40:31.182Z,2.40
2019-02-23T11:42:59.706Z,3.22
2019-02-23T11:45:27.765Z,3.40
2019-02-23T11:47:55.850Z,3.50
2019-02-23T11:50:24.068Z,3.85
2019-02-23T11:52:52.510Z,3.27
2019-02-23T11:55:20.698Z,3.80
2019-02-23T11:57:49.168Z,3.40
2019-02-23T12:00:17.290Z,3.27
2019-02-23T12:02:52.484Z,3.00
2019-02-23T12:05:15.120Z,2.37
2019-02-23T12:07:43.225Z,2.40
2019-02-23T12:10:17.515Z,2.67
2019-02-23T12:12:45.671Z,2.60
2019-02-23T12:15:14.017Z,2.22
2019-02-23T12:17:42.144Z,2.02
2019-02-23T12:20:10.603Z,1.80
2019-02-23T12:22:38.710Z,1.60
2019-02-23T12:25:07.405Z,2.70
2019-02-23T12:27:35.604Z,3.12
2019-02-23T12:30:04.741Z,2.75
2019-02-23T12:32:32.860Z,2.60
2019-02-23T12:35:00.995Z,2.40
2019-02-23T12:37:29.135Z,2.20
2019-02-23T12:39:57.286Z,2.83
2019-02-23T12:42:27.557Z,2.40
2019-02-23T12:44:56.194Z,2.17
2019-02-23T12:47:24.267Z,2.42
2019-02-23T12:49:52.376Z,2.75
2019-02-23T12:52:20.446Z,2.20
2019-02-23T12:54:48.531Z,2.27
2019-02-23T12:57:16.601Z,2.58
2019-02-23T12:59:45.039Z,3.65
2019-02-23T13:02:13.202Z,2.60
2019-02-23T13:04:41.461Z,4.00
2019-02-23T13:07:10.059Z,4.12
2019-02-23T13:09:38.773Z,3.70
2019-02-23T13:12:08.439Z,3.20
2019-02-23T13:14:44.279Z,3.47
2019-02-23T13:17:17.989Z,2.92
2019-02-23T13:19:47.749Z,2.50
2019-02-23T13:22:17.363Z,3.25
2019-02-23T13:24:47.170Z,2.83
2019-02-23T13:27:19.548Z,3.83
2019-02-23T13:30:06.014Z,3.80
2019-02-23T13:32:47.791Z,2.87
2019-02-23T13:35:26.505Z,3.45
2019-02-23T13:37:56.165Z,3.65
2019-02-23T13:40:28.698Z,3.80
2019-02-23T13:43:01.694Z,3.95
2019-02-23T13:45:40.460Z,3.75
2019-02-23T13:48:13.282Z,3.60
2019-02-23T13:50:50.337Z,3.50
2019-02-23T13:53:27.337Z,3.12
2019-02-23T13:56:03.268Z,3.30
2019-02-23T13:58:43.523Z,4.20
2019-02-23T14:01:13.262Z,3.00
2019-02-23T14:03:51.983Z,3.25
2019-02-23T14:06:38.116Z,2.80
2019-02-23T14:09:10.407Z,3.10
2019-02-23T14:11:57.017Z,3.70
2019-02-23T14:14:26.658Z,3.20
2019-02-23T14:17:02.130Z,2.40
2019-02-23T14:19:34.500Z,2.20
2019-02-23T14:22:16.297Z,3.47
2019-02-23T14:24:50.386Z,2.72
2019-02-23T14:27:20.705Z,2.52
2019-02-23T14:29:53.536Z,2.55
2019-02-23T14:32:32.853Z,3.45
2019-02-23T14:35:05.702Z,3.42
2019-02-23T14:37:38.144Z,3.52
2019-02-23T14:40:07.855Z,3.40
2019-02-23T14:42:49.851Z,3.30
2019-02-23T14:45:22.319Z,2.90
2019-02-23T14:47:57.934Z,3.15
2019-02-23T14:50:30.399Z,2.80
2019-02-23T14:53:06.313Z,2.60
2019-02-23T14:55:52.984Z,2.40
2019-02-23T14:58:37.908Z,2.20
2019-02-23T15:01:16.856Z,2.35
2019-02-23T15:03:46.736Z,1.87
2019-02-23T15:06:16.432Z,2.00
2019-02-23T15:08:46.130Z,2.27
2019-02-23T15:11:23.542Z,2.37
2019-02-23T15:14:09.738Z,2.20
2019-02-23T15:16:54.363Z,2.70
2019-02-23T15:19:24.049Z,2.83
2019-02-23T15:21:56.371Z,2.37
2019-02-23T15:24:31.943Z,2.70
2019-02-23T15:27:18.304Z,2.00
2019-02-23T15:29:56.738Z,2.00
2019-02-23T15:32:35.440Z,2.33
2019-02-23T15:35:11.928Z,1.85
2019-02-23T15:37:47.604Z,2.15
2019-02-23T15:40:17.275Z,2.35
2019-02-23T15:43:03.830Z,3.30
2019-02-23T15:45:51.260Z,3.65
2019-02-23T15:48:29.658Z,3.60
2019-02-23T15:50:58.626Z,2.65
2019-02-23T15:53:26.947Z,2.60
2019-02-23T15:55:55.239Z,2.25
2019-02-23T15:58:23.369Z,2.00
2019-02-23T16:00:52.747Z,2.10
2019-02-23T16:03:20.903Z,1.90
2019-02-23T16:05:49.064Z,2.12
2019-02-23T16:08:17.383Z,1.80
2019-02-23T16:10:45.692Z,1.90
2019-02-23T16:13:14.026Z,1.90
2019-02-23T16:15:42.244Z,1.87
2019-02-23T16:18:10.356Z,1.72
2019-02-23T16:20:38.519Z,2.45
2019-02-23T16:23:06.872Z,2.50
2019-02-23T16:25:38.616Z,2.10
2019-02-23T16:28:06.496Z,1.98
2019-02-23T16:30:34.719Z,3.30
2019-02-23T16:33:02.836Z,3.10
2019-02-23T16:35:31.011Z,3.22
2019-02-23T16:37:59.145Z,2.75
2019-02-23T16:40:27.246Z,3.15
2019-02-23T16:42:55.377Z,3.40
2019-02-23T16:45:23.639Z,2.62
2019-02-23T16:47:51.842Z,2.70
2019-02-23T16:50:20.026Z,2.83
2019-02-23T16:52:48.149Z,3.17
2019-02-23T16:55:16.316Z,2.83
2019-02-23T16:57:44.549Z,2.20
2019-02-23T17:00:12.668Z,2.67
2019-02-23T17:02:40.894Z,2.35
2019-02-23T17:05:09.095Z,2.92
2019-02-23T17:07:37.180Z,3.10
2019-02-23T17:10:06.147Z,3.10
2019-02-23T17:12:34.313Z,3.40
2019-02-23T17:15:02.463Z,2.77
2019-02-23T17:17:30.859Z,2.87
2019-02-23T17:19:59.176Z,3.70
2019-02-23T17:22:27.424Z,3.67
2019-02-23T17:24:55.628Z,3.62
2019-02-23T17:27:35.584Z,2.92
2019-02-23T17:29:53.511Z,3.17
2019-02-23T17:32:21.618Z,3.58
2019-02-23T17:34:49.853Z,4.10
2019-02-23T17:37:18.017Z,4.20
2019-02-23T17:39:46.287Z,4.42
2019-02-23T17:42:27.396Z,3.58
2019-02-23T17:44:44.244Z,3.45
2019-02-23T17:47:13.481Z,3.27
2019-02-23T17:49:41.601Z,3.45
2019-02-23T17:52:10.105Z,3.05
2019-02-23T17:54:38.328Z,2.83
2019-02-23T17:57:06.433Z,2.50
2019-02-23T17:59:34.568Z,2.77
2019-02-23T18:02:02.722Z,2.80
2019-02-23T18:04:30.956Z,2.40
2019-02-23T18:07:03.952Z,2.80
2019-02-23T18:09:32.102Z,2.60
2019-02-23T18:12:03.568Z,2.50
2019-02-23T18:14:33.354Z,2.70
2019-02-23T18:17:02.089Z,2.80
2019-02-23T18:19:30.323Z,2.47
2019-02-23T18:21:58.551Z,2.22
2019-02-23T18:24:26.690Z,2.02
2019-02-23T18:26:54.789Z,2.08
2019-02-23T18:29:22.931Z,2.83
2019-02-23T18:31:51.035Z,2.62
2019-02-23T18:34:19.336Z,2.85
2019-02-23T18:36:47.512Z,3.85
2019-02-23T18:39:15.658Z,2.90
2019-02-23T18:41:44.026Z,3.10
2019-02-23T18:44:12.263Z,4.10
2019-02-23T18:46:41.412Z,3.80
2019-02-23T18:49:09.739Z,3.77
2019-02-23T18:51:37.904Z,3.35
2019-02-23T18:54:06.131Z,2.83
2019-02-23T18:56:34.219Z,3.30
2019-02-23T18:59:02.459Z,3.12
2019-02-23T19:01:30.620Z,2.45
2019-02-23T19:03:58.729Z,2.47
2019-02-23T19:06:26.927Z,2.45
2019-02-23T19:08:55.015Z,2.25
2019-02-23T19:11:23.227Z,2.58
2019-02-23T19:13:51.335Z,2.52
2019-02-23T19:16:19.444Z,3.30
2019-02-23T19:18:47.522Z,2.52
2019-02-23T19:21:16.145Z,2.33
2019-02-23T19:23:44.239Z,3.12
2019-02-23T19:26:12.371Z,2.58
2019-02-23T19:28:43.260Z,2.40
2019-02-23T19:31:10.358Z,2.20
2019-02-23T19:33:38.485Z,2.00
2019-02-23T19:36:06.703Z,1.77
2019-02-23T19:38:35.499Z,1.85
2019-02-23T19:41:03.567Z,1.20
2019-02-23T19:43:31.714Z,1.40
2019-02-23T19:45:59.917Z,1.10
2019-02-23T19:48:28.113Z,1.20
2019-02-23T19:50:57.746Z,1.10
2019-02-23T19:53:25.871Z,1.30
2019-02-23T19:55:54.066Z,1.50
2019-02-23T19:58:22.240Z,1.47
2019-02-23T20:00:51.489Z,1.72
2019-02-23T20:03:19.753Z,1.80
2019-02-23T20:05:47.887Z,2.00
2019-02-23T20:08:15.989Z,2.00
2019-02-23T20:10:44.088Z,2.00
2019-02-23T20:13:12.178Z,1.90
2019-02-23T20:15:40.508Z,2.12
2019-02-23T20:18:08.590Z,1.80
2019-02-23T20:20:36.763Z,1.87
2019-02-23T20:23:06.130Z,2.00
2019-02-23T20:25:34.297Z,1.80
2019-02-23T20:28:02.369Z,1.50
2019-02-23T20:30:30.555Z,1.62
2019-02-23T20:32:58.789Z,2.05
2019-02-23T20:35:28.479Z,1.70
2019-02-23T20:37:56.903Z,1.62
2019-02-23T20:40:25.042Z,2.10
2019-02-23T20:42:53.178Z,2.30
2019-02-23T20:45:22.553Z,2.30
2019-02-23T20:47:50.696Z,2.45
2019-02-23T20:50:18.857Z,1.87
2019-02-23T20:52:46.938Z,1.95
2019-02-23T20:55:15.008Z,1.92
2019-02-23T20:57:43.480Z,1.90
2019-02-23T21:00:11.778Z,1.95
2019-02-23T21:02:41.580Z,1.80
2019-02-23T21:05:10.691Z,1.90
2019-02-23T21:07:39.745Z,1.70
2019-02-23T21:10:09.596Z,1.72
2019-02-23T21:12:38.218Z,1.50
2019-02-23T21:15:07.809Z,1.75
2019-02-23T21:17:37.522Z,1.30
2019-02-23T21:20:07.192Z,1.32
2019-02-23T21:22:35.438Z,1.30
2019-02-23T21:25:04.173Z,1.60
2019-02-23T21:27:32.256Z,1.27
2019-02-23T21:30:00.387Z,1.10
2019-02-23T21:32:28.633Z,1.37
2019-02-23T21:34:56.780Z,1.10
2019-02-23T21:37:24.909Z,1.02
2019-02-23T21:39:52.995Z,0.98
2019-02-23T21:42:21.268Z,1.02
2019-02-23T21:44:49.522Z,1.02
2019-02-23T21:47:17.673Z,1.45
2019-02-23T21:49:45.765Z,1.98
2019-02-23T21:52:13.916Z,2.33
2019-02-23T21:54:42.197Z,2.50
2019-02-23T21:57:10.324Z,2.30
2019-02-23T21:59:38.508Z,2.30
2019-02-23T22:02:06.572Z,2.67
2019-02-23T22:04:34.727Z,2.22
2019-02-23T22:07:02.945Z,2.33
2019-02-23T22:09:31.505Z,2.20
2019-02-23T22:11:59.777Z,2.17
2019-02-23T22:14:27.928Z,2.58
2019-02-23T22:16:56.137Z,1.87
2019-02-23T22:19:25.931Z,1.98
2019-02-23T22:21:54.183Z,2.05
2019-02-23T22:24:22.256Z,1.75
2019-02-23T22:26:50.332Z,1.62
2019-02-23T22:29:18.487Z,1.60
2019-02-23T22:31:47.001Z,1.62
2019-02-23T22:34:15.165Z,1.90
2019-02-23T22:36:43.291Z,2.10
2019-02-23T22:39:11.477Z,1.95
2019-02-23T22:41:39.557Z,2.15
2019-02-23T22:44:07.751Z,2.60
2019-02-23T22:46:35.797Z,2.15
2019-02-23T22:49:03.915Z,2.08
2019-02-23T22:51:32.075Z,2.12
2019-02-23T22:54:00.413Z,2.08
2019-02-23T22:56:28.492Z,1.95
2019-02-23T22:58:56.669Z,2.05
2019-02-23T23:01:25.286Z,2.65
2019-02-23T23:03:54.979Z,2.17
2019-02-23T23:06:23.063Z,1.87
2019-02-23T23:08:51.218Z,2.50
2019-02-23T23:11:20.446Z,1.87
2019-02-23T23:13:49.949Z,1.70
2019-02-23T23:16:19.686Z,1.80
2019-02-23T23:18:47.820Z,1.70
2019-02-23T23:21:16.042Z,1.70
2019-02-23T23:23:44.170Z,1.60
2019-02-23T23:26:13.328Z,1.77
2019-02-23T23:28:41.574Z,2.35
2019-02-23T23:31:09.710Z,1.67
2019-02-23T23:33:38.970Z,1.92
2019-02-23T23:36:07.061Z,2.00
2019-02-23T23:38:36.158Z,1.72
2019-02-23T23:41:04.235Z,1.80
2019-02-23T23:43:32.298Z,1.30
2019-02-23T23:46:00.407Z,1.90
2019-02-23T23:48:29.398Z,2.15
2019-02-23T23:50:57.438Z,1.90
2019-02-23T23:53:25.517Z,2.70
2019-02-23T23:55:53.669Z,2.10
2019-02-23T23:58:21.859Z,2.10
